<?xml version="1.0" encoding="utf-8"?>
<gpx xmlns:xsi="http://www.w3.org/2001/XMLSchema-instance" xmlns:xsd="http://www.w3.org/2001/XMLSchema" version="1.1" creator="Shapelink.com" xmlns="http://www.topografix.com/GPX/1/1" xmlns:gpxtpx="http://www.garmin.com/xmlschemas/TrackPointExtension/v1">
  <metadata>
    <name>Cykling 17.42 km, 2019-05-12</name>
    <desc></desc>
    <author><name>Marian Moron</name></author> 
    <time>2019-05-12T12:30:17Z</time>
  </metadata>
  <trk>
    <name>Cykling 17.42 km, 2019-05-12</name>
    <trkseg>
      <trkpt lat="51.228515446913" lon="4.449257443051">
        <ele>4.6</ele>
        <time>2019-05-12T12:30:17Z</time>
      </trkpt>
      <trkpt lat="51.228826163946" lon="4.44877389124">
        <ele>0</ele>
        <time>2019-05-12T12:30:41Z</time>
      </trkpt>
      <trkpt lat="51.228849381809" lon="4.448745057504">
        <ele>0</ele>
        <time>2019-05-12T12:31:23Z</time>
      </trkpt>
      <trkpt lat="51.228893135327" lon="4.448667692567">
        <ele>0</ele>
        <time>2019-05-12T12:31:31Z</time>
      </trkpt>
      <trkpt lat="51.228991203557" lon="4.44854590356">
        <ele>0</ele>
        <time>2019-05-12T12:31:40Z</time>
      </trkpt>
      <trkpt lat="51.229056079463" lon="4.448488403726">
        <ele>0</ele>
        <time>2019-05-12T12:32:01Z</time>
      </trkpt>
      <trkpt lat="51.229040489129" lon="4.448429059874">
        <ele>0.2</ele>
        <time>2019-05-12T12:32:07Z</time>
      </trkpt>
      <trkpt lat="51.228658274489" lon="4.447768649973">
        <ele>1.6</ele>
        <time>2019-05-12T12:32:28Z</time>
      </trkpt>
      <trkpt lat="51.228345713438" lon="4.447187029932">
        <ele>2.6</ele>
        <time>2019-05-12T12:32:43Z</time>
      </trkpt>
      <trkpt lat="51.227918487995" lon="4.447748114318">
        <ele>0</ele>
        <time>2019-05-12T12:33:02Z</time>
      </trkpt>
      <trkpt lat="51.227498303348" lon="4.448329818178">
        <ele>0</ele>
        <time>2019-05-12T12:33:18Z</time>
      </trkpt>
      <trkpt lat="51.227107120075" lon="4.44895829304">
        <ele>0</ele>
        <time>2019-05-12T12:33:35Z</time>
      </trkpt>
      <trkpt lat="51.226799252888" lon="4.449206732556">
        <ele>0</ele>
        <time>2019-05-12T12:33:57Z</time>
      </trkpt>
      <trkpt lat="51.226558776177" lon="4.449346291191">
        <ele>0</ele>
        <time>2019-05-12T12:34:08Z</time>
      </trkpt>
      <trkpt lat="51.22624336528" lon="4.448897691903">
        <ele>0</ele>
        <time>2019-05-12T12:34:24Z</time>
      </trkpt>
      <trkpt lat="51.225881015743" lon="4.449575871432">
        <ele>0</ele>
        <time>2019-05-12T12:34:42Z</time>
      </trkpt>
      <trkpt lat="51.225354716242" lon="4.449743257975">
        <ele>0</ele>
        <time>2019-05-12T12:34:58Z</time>
      </trkpt>
      <trkpt lat="51.224838391202" lon="4.450151288867">
        <ele>0</ele>
        <time>2019-05-12T12:35:13Z</time>
      </trkpt>
      <trkpt lat="51.224599926147" lon="4.450553200972">
        <ele>0</ele>
        <time>2019-05-12T12:35:20Z</time>
      </trkpt>
      <trkpt lat="51.224541504304" lon="4.450663087681">
        <ele>0</ele>
        <time>2019-05-12T12:35:22Z</time>
      </trkpt>
      <trkpt lat="51.224129114824" lon="4.45127840296">
        <ele>0</ele>
        <time>2019-05-12T12:35:37Z</time>
      </trkpt>
      <trkpt lat="51.223603318237" lon="4.451338585002">
        <ele>0</ele>
        <time>2019-05-12T12:35:55Z</time>
      </trkpt>
      <trkpt lat="51.223073582157" lon="4.451179161264">
        <ele>0</ele>
        <time>2019-05-12T12:36:13Z</time>
      </trkpt>
      <trkpt lat="51.223058075642" lon="4.451171198459">
        <ele>0</ele>
        <time>2019-05-12T12:36:16Z</time>
      </trkpt>
      <trkpt lat="51.223001916912" lon="4.451152171546">
        <ele>0</ele>
        <time>2019-05-12T12:36:51Z</time>
      </trkpt>
      <trkpt lat="51.222445694028" lon="4.451156111039">
        <ele>0</ele>
        <time>2019-05-12T12:37:15Z</time>
      </trkpt>
      <trkpt lat="51.221934062852" lon="4.451434138662">
        <ele>0</ele>
        <time>2019-05-12T12:37:34Z</time>
      </trkpt>
      <trkpt lat="51.221405081143" lon="4.451688110232">
        <ele>0</ele>
        <time>2019-05-12T12:37:58Z</time>
      </trkpt>
      <trkpt lat="51.220839051436" lon="4.451745777704">
        <ele>0</ele>
        <time>2019-05-12T12:38:14Z</time>
      </trkpt>
      <trkpt lat="51.220280313982" lon="4.451904111795">
        <ele>0</ele>
        <time>2019-05-12T12:38:29Z</time>
      </trkpt>
      <trkpt lat="51.219719481053" lon="4.4520042755">
        <ele>0</ele>
        <time>2019-05-12T12:38:43Z</time>
      </trkpt>
      <trkpt lat="51.219174573734" lon="4.452081472799">
        <ele>0</ele>
        <time>2019-05-12T12:38:58Z</time>
      </trkpt>
      <trkpt lat="51.218976844713" lon="4.452519091798">
        <ele>0</ele>
        <time>2019-05-12T12:39:09Z</time>
      </trkpt>
      <trkpt lat="51.219302649166" lon="4.453275139178">
        <ele>0</ele>
        <time>2019-05-12T12:39:22Z</time>
      </trkpt>
      <trkpt lat="51.219467772596" lon="4.453779813377">
        <ele>0</ele>
        <time>2019-05-12T12:39:35Z</time>
      </trkpt>
      <trkpt lat="51.219474478116" lon="4.453780903024">
        <ele>0</ele>
        <time>2019-05-12T12:39:43Z</time>
      </trkpt>
      <trkpt lat="51.219403231966" lon="4.453834211908">
        <ele>0</ele>
        <time>2019-05-12T12:39:53Z</time>
      </trkpt>
      <trkpt lat="51.218925044571" lon="4.454343244695">
        <ele>0</ele>
        <time>2019-05-12T12:40:09Z</time>
      </trkpt>
      <trkpt lat="51.218457334551" lon="4.454807601955">
        <ele>0</ele>
        <time>2019-05-12T12:40:23Z</time>
      </trkpt>
      <trkpt lat="51.218052069686" lon="4.4553318898">
        <ele>0</ele>
        <time>2019-05-12T12:40:41Z</time>
      </trkpt>
      <trkpt lat="51.217571367721" lon="4.45578870335">
        <ele>0</ele>
        <time>2019-05-12T12:40:54Z</time>
      </trkpt>
      <trkpt lat="51.217080775114" lon="4.456190615455">
        <ele>0</ele>
        <time>2019-05-12T12:41:07Z</time>
      </trkpt>
      <trkpt lat="51.217024197289" lon="4.456334784135">
        <ele>0</ele>
        <time>2019-05-12T12:41:11Z</time>
      </trkpt>
      <trkpt lat="51.217103825339" lon="4.457190659944">
        <ele>0</ele>
        <time>2019-05-12T12:41:28Z</time>
      </trkpt>
      <trkpt lat="51.217216310437" lon="4.458030945419">
        <ele>0</ele>
        <time>2019-05-12T12:41:43Z</time>
      </trkpt>
      <trkpt lat="51.217314211029" lon="4.45890174101">
        <ele>0</ele>
        <time>2019-05-12T12:42:01Z</time>
      </trkpt>
      <trkpt lat="51.217446812687" lon="4.459757365362">
        <ele>6.2</ele>
        <time>2019-05-12T12:42:19Z</time>
      </trkpt>
      <trkpt lat="51.217546054383" lon="4.46064182345">
        <ele>6.2</ele>
        <time>2019-05-12T12:42:37Z</time>
      </trkpt>
      <trkpt lat="51.21784973062" lon="4.461316231124">
        <ele>0</ele>
        <time>2019-05-12T12:42:59Z</time>
      </trkpt>
      <trkpt lat="51.217837073951" lon="4.462194235149">
        <ele>0</ele>
        <time>2019-05-12T12:43:14Z</time>
      </trkpt>
      <trkpt lat="51.21781201207" lon="4.463065366016">
        <ele>0</ele>
        <time>2019-05-12T12:43:28Z</time>
      </trkpt>
      <trkpt lat="51.217777981556" lon="4.463969270112">
        <ele>0</ele>
        <time>2019-05-12T12:43:43Z</time>
      </trkpt>
      <trkpt lat="51.217726600509" lon="4.46487468295">
        <ele>0</ele>
        <time>2019-05-12T12:43:58Z</time>
      </trkpt>
      <trkpt lat="51.217692821452" lon="4.465771965345">
        <ele>0</ele>
        <time>2019-05-12T12:44:12Z</time>
      </trkpt>
      <trkpt lat="51.217695000746" lon="4.465842457124">
        <ele>0</ele>
        <time>2019-05-12T12:44:13Z</time>
      </trkpt>
      <trkpt lat="51.217686199751" lon="4.466123250774">
        <ele>0</ele>
        <time>2019-05-12T12:44:17Z</time>
      </trkpt>
      <trkpt lat="51.21766868158" lon="4.466998069677">
        <ele>0</ele>
        <time>2019-05-12T12:44:30Z</time>
      </trkpt>
      <trkpt lat="51.217639009654" lon="4.467860399549">
        <ele>0</ele>
        <time>2019-05-12T12:44:43Z</time>
      </trkpt>
      <trkpt lat="51.217724924129" lon="4.468173295876">
        <ele>0</ele>
        <time>2019-05-12T12:44:53Z</time>
      </trkpt>
      <trkpt lat="51.217599866181" lon="4.468069527954">
        <ele>5.2</ele>
        <time>2019-05-12T12:47:39Z</time>
      </trkpt>
      <trkpt lat="51.217557621405" lon="4.468082352261">
        <ele>6.2</ele>
        <time>2019-05-12T12:47:47Z</time>
      </trkpt>
      <trkpt lat="51.217498612829" lon="4.468409078723">
        <ele>2.4</ele>
        <time>2019-05-12T12:47:57Z</time>
      </trkpt>
      <trkpt lat="51.217074237232" lon="4.467836762591">
        <ele>0.6</ele>
        <time>2019-05-12T12:48:18Z</time>
      </trkpt>
      <trkpt lat="51.21666369177" lon="4.467266122839">
        <ele>2</ele>
        <time>2019-05-12T12:48:36Z</time>
      </trkpt>
      <trkpt lat="51.21627896256" lon="4.466662961315">
        <ele>0</ele>
        <time>2019-05-12T12:48:52Z</time>
      </trkpt>
      <trkpt lat="51.215892808427" lon="4.466058039592">
        <ele>0</ele>
        <time>2019-05-12T12:49:05Z</time>
      </trkpt>
      <trkpt lat="51.215850479832" lon="4.466012022961">
        <ele>0</ele>
        <time>2019-05-12T12:49:06Z</time>
      </trkpt>
      <trkpt lat="51.215449908831" lon="4.466405720804">
        <ele>0</ele>
        <time>2019-05-12T12:49:21Z</time>
      </trkpt>
      <trkpt lat="51.215407412598" lon="4.466957417462">
        <ele>0</ele>
        <time>2019-05-12T12:49:34Z</time>
      </trkpt>
      <trkpt lat="51.214859739252" lon="4.46707828446">
        <ele>0</ele>
        <time>2019-05-12T12:49:54Z</time>
      </trkpt>
      <trkpt lat="51.214431256524" lon="4.466569922225">
        <ele>0</ele>
        <time>2019-05-12T12:50:09Z</time>
      </trkpt>
      <trkpt lat="51.213953236767" lon="4.466276052811">
        <ele>0</ele>
        <time>2019-05-12T12:50:20Z</time>
      </trkpt>
      <trkpt lat="51.213858940392" lon="4.466223414479">
        <ele>0</ele>
        <time>2019-05-12T12:50:22Z</time>
      </trkpt>
      <trkpt lat="51.213790460269" lon="4.466136661814">
        <ele>0</ele>
        <time>2019-05-12T12:50:24Z</time>
      </trkpt>
      <trkpt lat="51.213588791755" lon="4.466057955773">
        <ele>0</ele>
        <time>2019-05-12T12:50:30Z</time>
      </trkpt>
      <trkpt lat="51.213345716655" lon="4.466120652385">
        <ele>0</ele>
        <time>2019-05-12T12:50:38Z</time>
      </trkpt>
      <trkpt lat="51.2133335629" lon="4.465485974917">
        <ele>0</ele>
        <time>2019-05-12T12:50:53Z</time>
      </trkpt>
      <trkpt lat="51.212806425209" lon="4.465227728578">
        <ele>0</ele>
        <time>2019-05-12T12:51:08Z</time>
      </trkpt>
      <trkpt lat="51.212256572569" lon="4.465396623863">
        <ele>0</ele>
        <time>2019-05-12T12:51:29Z</time>
      </trkpt>
      <trkpt lat="51.211735721303" lon="4.465200906498">
        <ele>0</ele>
        <time>2019-05-12T12:51:45Z</time>
      </trkpt>
      <trkpt lat="51.211512678944" lon="4.464963195814">
        <ele>0</ele>
        <time>2019-05-12T12:52:00Z</time>
      </trkpt>
      <trkpt lat="51.211456268757" lon="4.465836003061">
        <ele>0</ele>
        <time>2019-05-12T12:52:23Z</time>
      </trkpt>
      <trkpt lat="51.211487197968" lon="4.466039599412">
        <ele>0</ele>
        <time>2019-05-12T12:52:30Z</time>
      </trkpt>
      <trkpt lat="51.211480827724" lon="4.466050076787">
        <ele>0</ele>
        <time>2019-05-12T12:53:27Z</time>
      </trkpt>
      <trkpt lat="51.211474038385" lon="4.466116629073">
        <ele>0</ele>
        <time>2019-05-12T12:53:30Z</time>
      </trkpt>
      <trkpt lat="51.211527682545" lon="4.467023131558">
        <ele>0</ele>
        <time>2019-05-12T12:53:49Z</time>
      </trkpt>
      <trkpt lat="51.211499770818" lon="4.46789468152">
        <ele>0</ele>
        <time>2019-05-12T12:54:02Z</time>
      </trkpt>
      <trkpt lat="51.211499016447" lon="4.468031474128">
        <ele>0</ele>
        <time>2019-05-12T12:54:04Z</time>
      </trkpt>
      <trkpt lat="51.211497340067" lon="4.46816876965">
        <ele>0</ele>
        <time>2019-05-12T12:54:06Z</time>
      </trkpt>
      <trkpt lat="51.211408491927" lon="4.469019364862">
        <ele>0</ele>
        <time>2019-05-12T12:54:19Z</time>
      </trkpt>
      <trkpt lat="51.211410671221" lon="4.469362519848">
        <ele>0</ele>
        <time>2019-05-12T12:54:24Z</time>
      </trkpt>
      <trkpt lat="51.211453083635" lon="4.469706764481">
        <ele>0</ele>
        <time>2019-05-12T12:54:29Z</time>
      </trkpt>
      <trkpt lat="51.211475798584" lon="4.469842467442">
        <ele>0</ele>
        <time>2019-05-12T12:54:31Z</time>
      </trkpt>
      <trkpt lat="51.211559282308" lon="4.47038242944">
        <ele>0</ele>
        <time>2019-05-12T12:54:39Z</time>
      </trkpt>
      <trkpt lat="51.211818450656" lon="4.471158844837">
        <ele>0</ele>
        <time>2019-05-12T12:54:50Z</time>
      </trkpt>
      <trkpt lat="51.212217261458" lon="4.471846579732">
        <ele>0</ele>
        <time>2019-05-12T12:55:03Z</time>
      </trkpt>
      <trkpt lat="51.212555638761" lon="4.472535488093">
        <ele>0</ele>
        <time>2019-05-12T12:55:14Z</time>
      </trkpt>
      <trkpt lat="51.2126294833" lon="4.47271343583">
        <ele>0</ele>
        <time>2019-05-12T12:55:17Z</time>
      </trkpt>
      <trkpt lat="51.212916060461" lon="4.473461688043">
        <ele>0</ele>
        <time>2019-05-12T12:55:33Z</time>
      </trkpt>
      <trkpt lat="51.213186795831" lon="4.474257297991">
        <ele>0</ele>
        <time>2019-05-12T12:55:48Z</time>
      </trkpt>
      <trkpt lat="51.213378322246" lon="4.47507545525">
        <ele>0</ele>
        <time>2019-05-12T12:56:02Z</time>
      </trkpt>
      <trkpt lat="51.213499859796" lon="4.475972402369">
        <ele>0</ele>
        <time>2019-05-12T12:56:15Z</time>
      </trkpt>
      <trkpt lat="51.213531124283" lon="4.476179686756">
        <ele>0</ele>
        <time>2019-05-12T12:56:18Z</time>
      </trkpt>
      <trkpt lat="51.213692727315" lon="4.477059702437">
        <ele>0</ele>
        <time>2019-05-12T12:56:33Z</time>
      </trkpt>
      <trkpt lat="51.214051640273" lon="4.477763027666">
        <ele>0</ele>
        <time>2019-05-12T12:56:48Z</time>
      </trkpt>
      <trkpt lat="51.21449361786" lon="4.478322519491">
        <ele>0</ele>
        <time>2019-05-12T12:57:03Z</time>
      </trkpt>
      <trkpt lat="51.214875664862" lon="4.47869308329">
        <ele>0</ele>
        <time>2019-05-12T12:57:13Z</time>
      </trkpt>
      <trkpt lat="51.215121841265" lon="4.478843203119">
        <ele>0</ele>
        <time>2019-05-12T12:57:19Z</time>
      </trkpt>
      <trkpt lat="51.215667586774" lon="4.479000447563">
        <ele>0</ele>
        <time>2019-05-12T12:57:33Z</time>
      </trkpt>
      <trkpt lat="51.21610294266" lon="4.479418872011">
        <ele>0</ele>
        <time>2019-05-12T12:57:49Z</time>
      </trkpt>
      <trkpt lat="51.216148372558" lon="4.48029737895">
        <ele>0</ele>
        <time>2019-05-12T12:58:07Z</time>
      </trkpt>
      <trkpt lat="51.21654466879" lon="4.480459317258">
        <ele>0</ele>
        <time>2019-05-12T12:58:20Z</time>
      </trkpt>
      <trkpt lat="51.216328834865" lon="4.481716015525">
        <ele>0</ele>
        <time>2019-05-12T12:58:47Z</time>
      </trkpt>
      <trkpt lat="51.216771650642" lon="4.481684415762">
        <ele>0</ele>
        <time>2019-05-12T12:59:02Z</time>
      </trkpt>
      <trkpt lat="51.21688078298" lon="4.481494230451">
        <ele>0</ele>
        <time>2019-05-12T12:59:08Z</time>
      </trkpt>
      <trkpt lat="51.216926212878" lon="4.481513676459">
        <ele>0</ele>
        <time>2019-05-12T12:59:10Z</time>
      </trkpt>
      <trkpt lat="51.216947586723" lon="4.481811066271">
        <ele>0</ele>
        <time>2019-05-12T12:59:18Z</time>
      </trkpt>
      <trkpt lat="51.216407708544" lon="4.482009298206">
        <ele>0</ele>
        <time>2019-05-12T12:59:37Z</time>
      </trkpt>
      <trkpt lat="51.215878056283" lon="4.482009382025">
        <ele>0</ele>
        <time>2019-05-12T12:59:49Z</time>
      </trkpt>
      <trkpt lat="51.215323258322" lon="4.481892286882">
        <ele>0</ele>
        <time>2019-05-12T13:00:02Z</time>
      </trkpt>
      <trkpt lat="51.215105748017" lon="4.481813748479">
        <ele>0</ele>
        <time>2019-05-12T13:00:07Z</time>
      </trkpt>
      <trkpt lat="51.214821685426" lon="4.481680057174">
        <ele>0</ele>
        <time>2019-05-12T13:00:13Z</time>
      </trkpt>
      <trkpt lat="51.214526977822" lon="4.481523148006">
        <ele>0</ele>
        <time>2019-05-12T13:00:20Z</time>
      </trkpt>
      <trkpt lat="51.214414157448" lon="4.481428432536">
        <ele>0</ele>
        <time>2019-05-12T13:00:23Z</time>
      </trkpt>
      <trkpt lat="51.213930521818" lon="4.480998441066">
        <ele>0</ele>
        <time>2019-05-12T13:00:38Z</time>
      </trkpt>
      <trkpt lat="51.21344336579" lon="4.480598875893">
        <ele>0</ele>
        <time>2019-05-12T13:00:52Z</time>
      </trkpt>
      <trkpt lat="51.213166260176" lon="4.480383461063">
        <ele>0</ele>
        <time>2019-05-12T13:00:59Z</time>
      </trkpt>
      <trkpt lat="51.21308126771" lon="4.480335516595">
        <ele>0</ele>
        <time>2019-05-12T13:01:01Z</time>
      </trkpt>
      <trkpt lat="51.213001136746" lon="4.48027055687">
        <ele>0</ele>
        <time>2019-05-12T13:01:03Z</time>
      </trkpt>
      <trkpt lat="51.212928884768" lon="4.480187911336">
        <ele>0</ele>
        <time>2019-05-12T13:01:05Z</time>
      </trkpt>
      <trkpt lat="51.212424881121" lon="4.479777365874">
        <ele>0</ele>
        <time>2019-05-12T13:01:19Z</time>
      </trkpt>
      <trkpt lat="51.211937892731" lon="4.479285767439">
        <ele>0</ele>
        <time>2019-05-12T13:01:36Z</time>
      </trkpt>
      <trkpt lat="51.21152055793" lon="4.478700794638">
        <ele>0</ele>
        <time>2019-05-12T13:01:51Z</time>
      </trkpt>
      <trkpt lat="51.211185784844" lon="4.477988500776">
        <ele>0</ele>
        <time>2019-05-12T13:02:07Z</time>
      </trkpt>
      <trkpt lat="51.210850425025" lon="4.477275620181">
        <ele>0</ele>
        <time>2019-05-12T13:02:21Z</time>
      </trkpt>
      <trkpt lat="51.210639117326" lon="4.47645092504">
        <ele>0</ele>
        <time>2019-05-12T13:02:38Z</time>
      </trkpt>
      <trkpt lat="51.210430324197" lon="4.475607286805">
        <ele>0</ele>
        <time>2019-05-12T13:02:56Z</time>
      </trkpt>
      <trkpt lat="51.210244748931" lon="4.474742274725">
        <ele>0</ele>
        <time>2019-05-12T13:03:14Z</time>
      </trkpt>
      <trkpt lat="51.20998583204" lon="4.473955214315">
        <ele>0</ele>
        <time>2019-05-12T13:03:28Z</time>
      </trkpt>
      <trkpt lat="51.209611831662" lon="4.473279465537">
        <ele>0</ele>
        <time>2019-05-12T13:03:43Z</time>
      </trkpt>
      <trkpt lat="51.209372528417" lon="4.472970843979">
        <ele>0</ele>
        <time>2019-05-12T13:03:51Z</time>
      </trkpt>
      <trkpt lat="51.208888473692" lon="4.472532889704">
        <ele>0</ele>
        <time>2019-05-12T13:04:07Z</time>
      </trkpt>
      <trkpt lat="51.208589575138" lon="4.472488465634">
        <ele>0</ele>
        <time>2019-05-12T13:04:15Z</time>
      </trkpt>
      <trkpt lat="51.208508773622" lon="4.472448651609">
        <ele>0</ele>
        <time>2019-05-12T13:04:17Z</time>
      </trkpt>
      <trkpt lat="51.207978115533" lon="4.472172132728">
        <ele>0</ele>
        <time>2019-05-12T13:04:31Z</time>
      </trkpt>
      <trkpt lat="51.207717857538" lon="4.472027712591">
        <ele>0</ele>
        <time>2019-05-12T13:04:38Z</time>
      </trkpt>
      <trkpt lat="51.207195329892" lon="4.471708781296">
        <ele>0</ele>
        <time>2019-05-12T13:04:51Z</time>
      </trkpt>
      <trkpt lat="51.206982848727" lon="4.471570815222">
        <ele>0</ele>
        <time>2019-05-12T13:04:56Z</time>
      </trkpt>
      <trkpt lat="51.206426625843" lon="4.471317095109">
        <ele>0</ele>
        <time>2019-05-12T13:05:09Z</time>
      </trkpt>
      <trkpt lat="51.206210708099" lon="4.471208214228">
        <ele>0</ele>
        <time>2019-05-12T13:05:14Z</time>
      </trkpt>
      <trkpt lat="51.206130660954" lon="4.471162868149">
        <ele>0</ele>
        <time>2019-05-12T13:05:16Z</time>
      </trkpt>
      <trkpt lat="51.205618359226" lon="4.470879308472">
        <ele>1.2</ele>
        <time>2019-05-12T13:05:34Z</time>
      </trkpt>
      <trkpt lat="51.205083174911" lon="4.470645453462">
        <ele>0.6</ele>
        <time>2019-05-12T13:05:49Z</time>
      </trkpt>
      <trkpt lat="51.204528879864" lon="4.470394750833">
        <ele>1.8</ele>
        <time>2019-05-12T13:06:05Z</time>
      </trkpt>
      <trkpt lat="51.203979446319" lon="4.470179922736">
        <ele>2.8</ele>
        <time>2019-05-12T13:06:19Z</time>
      </trkpt>
      <trkpt lat="51.203451889533" lon="4.469949001391">
        <ele>7.2</ele>
        <time>2019-05-12T13:06:33Z</time>
      </trkpt>
      <trkpt lat="51.202967918627" lon="4.469646079525">
        <ele>10</ele>
        <time>2019-05-12T13:06:46Z</time>
      </trkpt>
      <trkpt lat="51.202668684797" lon="4.468926661048">
        <ele>3</ele>
        <time>2019-05-12T13:06:59Z</time>
      </trkpt>
      <trkpt lat="51.20259131986" lon="4.468049579032">
        <ele>0</ele>
        <time>2019-05-12T13:07:14Z</time>
      </trkpt>
      <trkpt lat="51.20263490574" lon="4.467172916111">
        <ele>3.2</ele>
        <time>2019-05-12T13:07:33Z</time>
      </trkpt>
      <trkpt lat="51.202640186337" lon="4.467168306066">
        <ele>3.4</ele>
        <time>2019-05-12T13:07:36Z</time>
      </trkpt>
      <trkpt lat="51.202639012871" lon="4.467178951079">
        <ele>3.8</ele>
        <time>2019-05-12T13:07:42Z</time>
      </trkpt>
      <trkpt lat="51.202645131658" lon="4.467104771264">
        <ele>3.6</ele>
        <time>2019-05-12T13:07:48Z</time>
      </trkpt>
      <trkpt lat="51.202725933174" lon="4.466244704505">
        <ele>1.2</ele>
        <time>2019-05-12T13:08:04Z</time>
      </trkpt>
      <trkpt lat="51.202786953406" lon="4.465361000788">
        <ele>0.4</ele>
        <time>2019-05-12T13:08:19Z</time>
      </trkpt>
      <trkpt lat="51.202806399414" lon="4.464452486647">
        <ele>0</ele>
        <time>2019-05-12T13:08:35Z</time>
      </trkpt>
      <trkpt lat="51.202781253714" lon="4.463583367436">
        <ele>0</ele>
        <time>2019-05-12T13:08:50Z</time>
      </trkpt>
      <trkpt lat="51.202589308204" lon="4.462721875754">
        <ele>0</ele>
        <time>2019-05-12T13:09:05Z</time>
      </trkpt>
      <trkpt lat="51.202415467598" lon="4.462354413258">
        <ele>0</ele>
        <time>2019-05-12T13:09:13Z</time>
      </trkpt>
      <trkpt lat="51.202161747485" lon="4.462408811789">
        <ele>0</ele>
        <time>2019-05-12T13:09:24Z</time>
      </trkpt>
      <trkpt lat="51.201733264757" lon="4.462063226052">
        <ele>0</ele>
        <time>2019-05-12T13:09:42Z</time>
      </trkpt>
      <trkpt lat="51.2011881898" lon="4.462143273197">
        <ele>1.6</ele>
        <time>2019-05-12T13:09:56Z</time>
      </trkpt>
      <trkpt lat="51.20062576431" lon="4.462238659219">
        <ele>6.8</ele>
        <time>2019-05-12T13:10:11Z</time>
      </trkpt>
      <trkpt lat="51.200085802312" lon="4.462274701389">
        <ele>3.6</ele>
        <time>2019-05-12T13:10:25Z</time>
      </trkpt>
      <trkpt lat="51.199521365166" lon="4.462317951993">
        <ele>1.4</ele>
        <time>2019-05-12T13:10:39Z</time>
      </trkpt>
      <trkpt lat="51.199284241215" lon="4.462299260356">
        <ele>0.6</ele>
        <time>2019-05-12T13:10:45Z</time>
      </trkpt>
      <trkpt lat="51.199126745314" lon="4.461437014303">
        <ele>0</ele>
        <time>2019-05-12T13:11:01Z</time>
      </trkpt>
      <trkpt lat="51.199018534985" lon="4.460892190803">
        <ele>0</ele>
        <time>2019-05-12T13:11:14Z</time>
      </trkpt>
      <trkpt lat="51.198482596299" lon="4.461022613167">
        <ele>0</ele>
        <time>2019-05-12T13:11:31Z</time>
      </trkpt>
      <trkpt lat="51.197910363986" lon="4.460930076991">
        <ele>0.4</ele>
        <time>2019-05-12T13:11:49Z</time>
      </trkpt>
      <trkpt lat="51.197511720822" lon="4.460880120867">
        <ele>2.2</ele>
        <time>2019-05-12T13:12:00Z</time>
      </trkpt>
      <trkpt lat="51.197490849891" lon="4.460797810609">
        <ele>1</ele>
        <time>2019-05-12T13:12:02Z</time>
      </trkpt>
      <trkpt lat="51.19754457787" lon="4.459911005589">
        <ele>0</ele>
        <time>2019-05-12T13:12:21Z</time>
      </trkpt>
      <trkpt lat="51.19752865226" lon="4.459862893483">
        <ele>0</ele>
        <time>2019-05-12T13:12:23Z</time>
      </trkpt>
      <trkpt lat="51.19696203582" lon="4.45978519327">
        <ele>0</ele>
        <time>2019-05-12T13:12:43Z</time>
      </trkpt>
      <trkpt lat="51.196415284483" lon="4.459672791991">
        <ele>0</ele>
        <time>2019-05-12T13:12:59Z</time>
      </trkpt>
      <trkpt lat="51.195934331061" lon="4.46001150457">
        <ele>0</ele>
        <time>2019-05-12T13:13:17Z</time>
      </trkpt>
      <trkpt lat="51.195452036535" lon="4.460476616201">
        <ele>1.6</ele>
        <time>2019-05-12T13:13:34Z</time>
      </trkpt>
      <trkpt lat="51.19504509529" lon="4.461069216531">
        <ele>3</ele>
        <time>2019-05-12T13:13:52Z</time>
      </trkpt>
      <trkpt lat="51.194747789297" lon="4.461802548962">
        <ele>4.8</ele>
        <time>2019-05-12T13:14:07Z</time>
      </trkpt>
      <trkpt lat="51.194677046061" lon="4.462700837185">
        <ele>1.4</ele>
        <time>2019-05-12T13:14:21Z</time>
      </trkpt>
      <trkpt lat="51.194763044355" lon="4.463569202025">
        <ele>0</ele>
        <time>2019-05-12T13:14:35Z</time>
      </trkpt>
      <trkpt lat="51.194941327368" lon="4.464411247699">
        <ele>0</ele>
        <time>2019-05-12T13:14:49Z</time>
      </trkpt>
      <trkpt lat="51.195054147742" lon="4.465287575344">
        <ele>0</ele>
        <time>2019-05-12T13:15:06Z</time>
      </trkpt>
      <trkpt lat="51.195218852077" lon="4.46612861519">
        <ele>0</ele>
        <time>2019-05-12T13:15:23Z</time>
      </trkpt>
      <trkpt lat="51.195291020236" lon="4.466864210734">
        <ele>0</ele>
        <time>2019-05-12T13:15:38Z</time>
      </trkpt>
      <trkpt lat="51.194907548311" lon="4.467455721417">
        <ele>3.6</ele>
        <time>2019-05-12T13:15:53Z</time>
      </trkpt>
      <trkpt lat="51.194830853926" lon="4.468297934729">
        <ele>0</ele>
        <time>2019-05-12T13:16:11Z</time>
      </trkpt>
      <trkpt lat="51.194640417158" lon="4.469134951263">
        <ele>0</ele>
        <time>2019-05-12T13:16:30Z</time>
      </trkpt>
      <trkpt lat="51.194648715239" lon="4.470005160121">
        <ele>1.6</ele>
        <time>2019-05-12T13:16:49Z</time>
      </trkpt>
      <trkpt lat="51.194699174277" lon="4.470913255167">
        <ele>0</ele>
        <time>2019-05-12T13:17:06Z</time>
      </trkpt>
      <trkpt lat="51.194716943905" lon="4.471805843698">
        <ele>0</ele>
        <time>2019-05-12T13:17:22Z</time>
      </trkpt>
      <trkpt lat="51.194746364374" lon="4.4726824228">
        <ele>0</ele>
        <time>2019-05-12T13:17:38Z</time>
      </trkpt>
      <trkpt lat="51.194762457622" lon="4.473539639713">
        <ele>0.2</ele>
        <time>2019-05-12T13:17:55Z</time>
      </trkpt>
      <trkpt lat="51.194756087378" lon="4.474420912679">
        <ele>2</ele>
        <time>2019-05-12T13:18:14Z</time>
      </trkpt>
      <trkpt lat="51.194795901403" lon="4.475316099599">
        <ele>0.2</ele>
        <time>2019-05-12T13:18:31Z</time>
      </trkpt>
      <trkpt lat="51.194790369349" lon="4.476203910447">
        <ele>0</ele>
        <time>2019-05-12T13:18:47Z</time>
      </trkpt>
      <trkpt lat="51.194833368496" lon="4.477068335794">
        <ele>0</ele>
        <time>2019-05-12T13:19:01Z</time>
      </trkpt>
      <trkpt lat="51.194893550538" lon="4.477969222406">
        <ele>0</ele>
        <time>2019-05-12T13:19:19Z</time>
      </trkpt>
      <trkpt lat="51.194896568022" lon="4.478852926123">
        <ele>0</ele>
        <time>2019-05-12T13:19:34Z</time>
      </trkpt>
      <trkpt lat="51.195253720781" lon="4.479445191177">
        <ele>0</ele>
        <time>2019-05-12T13:19:50Z</time>
      </trkpt>
      <trkpt lat="51.196062741769" lon="4.480136530289">
        <ele>0</ele>
        <time>2019-05-12T13:20:17Z</time>
      </trkpt>
      <trkpt lat="51.196557357688" lon="4.48053961586">
        <ele>2.6</ele>
        <time>2019-05-12T13:20:32Z</time>
      </trkpt>
      <trkpt lat="51.197061277516" lon="4.480944629268">
        <ele>1</ele>
        <time>2019-05-12T13:20:49Z</time>
      </trkpt>
      <trkpt lat="51.197566286991" lon="4.481344948812">
        <ele>0.4</ele>
        <time>2019-05-12T13:21:06Z</time>
      </trkpt>
      <trkpt lat="51.198052353372" lon="4.481732527868">
        <ele>0.4</ele>
        <time>2019-05-12T13:21:24Z</time>
      </trkpt>
      <trkpt lat="51.198549735318" lon="4.482165033908">
        <ele>0</ele>
        <time>2019-05-12T13:21:40Z</time>
      </trkpt>
      <trkpt lat="51.199034795871" lon="4.48255127186">
        <ele>0.4</ele>
        <time>2019-05-12T13:21:55Z</time>
      </trkpt>
      <trkpt lat="51.199534608568" lon="4.482962236417">
        <ele>0.6</ele>
        <time>2019-05-12T13:22:13Z</time>
      </trkpt>
      <trkpt lat="51.20002478208" lon="4.483375967001">
        <ele>1</ele>
        <time>2019-05-12T13:22:31Z</time>
      </trkpt>
      <trkpt lat="51.200520655284" lon="4.483780561314">
        <ele>0.6</ele>
        <time>2019-05-12T13:22:51Z</time>
      </trkpt>
      <trkpt lat="51.201006386389" lon="4.484198147572">
        <ele>0</ele>
        <time>2019-05-12T13:23:09Z</time>
      </trkpt>
      <trkpt lat="51.201483987051" lon="4.484625037739">
        <ele>0</ele>
        <time>2019-05-12T13:23:25Z</time>
      </trkpt>
      <trkpt lat="51.201974579658" lon="4.484981519946">
        <ele>0</ele>
        <time>2019-05-12T13:23:41Z</time>
      </trkpt>
      <trkpt lat="51.202403397662" lon="4.485250578936">
        <ele>0</ele>
        <time>2019-05-12T13:23:59Z</time>
      </trkpt>
      <trkpt lat="51.202458466745" lon="4.485273293885">
        <ele>3.4</ele>
        <time>2019-05-12T13:25:21Z</time>
      </trkpt>
      <trkpt lat="51.2026131128" lon="4.485339846171">
        <ele>2.2</ele>
        <time>2019-05-12T13:25:30Z</time>
      </trkpt>
      <trkpt lat="51.203024915547" lon="4.484767362401">
        <ele>2</ele>
        <time>2019-05-12T13:25:50Z</time>
      </trkpt>
      <trkpt lat="51.203457756863" lon="4.484257910519">
        <ele>2.4</ele>
        <time>2019-05-12T13:26:06Z</time>
      </trkpt>
      <trkpt lat="51.203927729996" lon="4.483760696211">
        <ele>0</ele>
        <time>2019-05-12T13:26:22Z</time>
      </trkpt>
      <trkpt lat="51.204381777519" lon="4.48327043888">
        <ele>0</ele>
        <time>2019-05-12T13:26:38Z</time>
      </trkpt>
      <trkpt lat="51.204833142834" lon="4.482761909007">
        <ele>0</ele>
        <time>2019-05-12T13:26:55Z</time>
      </trkpt>
      <trkpt lat="51.205292051859" lon="4.482223371932">
        <ele>0</ele>
        <time>2019-05-12T13:27:13Z</time>
      </trkpt>
      <trkpt lat="51.205744842097" lon="4.481681565916">
        <ele>0</ele>
        <time>2019-05-12T13:27:29Z</time>
      </trkpt>
      <trkpt lat="51.206197967611" lon="4.481165911428">
        <ele>0</ele>
        <time>2019-05-12T13:27:44Z</time>
      </trkpt>
      <trkpt lat="51.206633994049" lon="4.48064271323">
        <ele>0</ele>
        <time>2019-05-12T13:27:58Z</time>
      </trkpt>
      <trkpt lat="51.207094663273" lon="4.480099649929">
        <ele>0</ele>
        <time>2019-05-12T13:28:13Z</time>
      </trkpt>
      <trkpt lat="51.207538401059" lon="4.479604363458">
        <ele>0</ele>
        <time>2019-05-12T13:28:33Z</time>
      </trkpt>
      <trkpt lat="51.207954227118" lon="4.47903338843">
        <ele>0</ele>
        <time>2019-05-12T13:28:55Z</time>
      </trkpt>
      <trkpt lat="51.208269051282" lon="4.478551010085">
        <ele>7.2</ele>
        <time>2019-05-12T13:30:25Z</time>
      </trkpt>
      <trkpt lat="51.208269051282" lon="4.478551596818">
        <ele>7.2</ele>
        <time>2019-05-12T13:30:27Z</time>
      </trkpt>
      <trkpt lat="51.208290341308" lon="4.478497114468">
        <ele>8</ele>
        <time>2019-05-12T13:30:33Z</time>
      </trkpt>
      <trkpt lat="51.208468456683" lon="4.477680046856">
        <ele>0</ele>
        <time>2019-05-12T13:30:55Z</time>
      </trkpt>
      <trkpt lat="51.208533919322" lon="4.476800366451">
        <ele>0</ele>
        <time>2019-05-12T13:31:16Z</time>
      </trkpt>
      <trkpt lat="51.208635424131" lon="4.475941892253">
        <ele>0</ele>
        <time>2019-05-12T13:31:35Z</time>
      </trkpt>
      <trkpt lat="51.208748328324" lon="4.475053243215">
        <ele>0</ele>
        <time>2019-05-12T13:31:50Z</time>
      </trkpt>
      <trkpt lat="51.208857125386" lon="4.47418613566">
        <ele>0</ele>
        <time>2019-05-12T13:32:04Z</time>
      </trkpt>
      <trkpt lat="51.208963491697" lon="4.473299833554">
        <ele>0</ele>
        <time>2019-05-12T13:32:18Z</time>
      </trkpt>
      <trkpt lat="51.209078994279" lon="4.473045610527">
        <ele>0</ele>
        <time>2019-05-12T13:32:25Z</time>
      </trkpt>
      <trkpt lat="51.209509572482" lon="4.473616250279">
        <ele>0</ele>
        <time>2019-05-12T13:32:42Z</time>
      </trkpt>
      <trkpt lat="51.209838813514" lon="4.474291663781">
        <ele>0</ele>
        <time>2019-05-12T13:32:57Z</time>
      </trkpt>
      <trkpt lat="51.210068393755" lon="4.475137816586">
        <ele>0</ele>
        <time>2019-05-12T13:33:12Z</time>
      </trkpt>
      <trkpt lat="51.210230918796" lon="4.475967121772">
        <ele>0</ele>
        <time>2019-05-12T13:33:25Z</time>
      </trkpt>
      <trkpt lat="51.210432084396" lon="4.476793912388">
        <ele>0</ele>
        <time>2019-05-12T13:33:39Z</time>
      </trkpt>
      <trkpt lat="51.210716063168" lon="4.477572004165">
        <ele>0</ele>
        <time>2019-05-12T13:33:53Z</time>
      </trkpt>
      <trkpt lat="51.210857382002" lon="4.477927732001">
        <ele>0</ele>
        <time>2019-05-12T13:33:59Z</time>
      </trkpt>
      <trkpt lat="51.211228448715" lon="4.478566935695">
        <ele>0</ele>
        <time>2019-05-12T13:34:14Z</time>
      </trkpt>
      <trkpt lat="51.211578644497" lon="4.479219131334">
        <ele>0</ele>
        <time>2019-05-12T13:34:32Z</time>
      </trkpt>
      <trkpt lat="51.212015257668" lon="4.479777114417">
        <ele>0</ele>
        <time>2019-05-12T13:34:49Z</time>
      </trkpt>
      <trkpt lat="51.212500569678" lon="4.480217415624">
        <ele>0</ele>
        <time>2019-05-12T13:35:04Z</time>
      </trkpt>
      <trkpt lat="51.212980852548" lon="4.480598372979">
        <ele>0</ele>
        <time>2019-05-12T13:35:20Z</time>
      </trkpt>
      <trkpt lat="51.212996191425" lon="4.480594601124">
        <ele>0</ele>
        <time>2019-05-12T13:35:23Z</time>
      </trkpt>
      <trkpt lat="51.212967441508" lon="4.480553948909">
        <ele>0</ele>
        <time>2019-05-12T13:35:49Z</time>
      </trkpt>
      <trkpt lat="51.212968447336" lon="4.480472812117">
        <ele>0</ele>
        <time>2019-05-12T13:35:56Z</time>
      </trkpt>
      <trkpt lat="51.212997029615" lon="4.480205094231">
        <ele>0</ele>
        <time>2019-05-12T13:36:05Z</time>
      </trkpt>
      <trkpt lat="51.212960735988" lon="4.480084227233">
        <ele>0</ele>
        <time>2019-05-12T13:36:09Z</time>
      </trkpt>
      <trkpt lat="51.21326231675" lon="4.479309236759">
        <ele>0</ele>
        <time>2019-05-12T13:36:26Z</time>
      </trkpt>
      <trkpt lat="51.21349617176" lon="4.478481105039">
        <ele>0</ele>
        <time>2019-05-12T13:36:43Z</time>
      </trkpt>
      <trkpt lat="51.213598766216" lon="4.478354370711">
        <ele>0</ele>
        <time>2019-05-12T13:36:47Z</time>
      </trkpt>
      <trkpt lat="51.214035882301" lon="4.477956146642">
        <ele>0</ele>
        <time>2019-05-12T13:37:02Z</time>
      </trkpt>
      <trkpt lat="51.214133950531" lon="4.477803260786">
        <ele>0</ele>
        <time>2019-05-12T13:37:06Z</time>
      </trkpt>
      <trkpt lat="51.214552207341" lon="4.47833433797">
        <ele>0</ele>
        <time>2019-05-12T13:37:21Z</time>
      </trkpt>
      <trkpt lat="51.215020923189" lon="4.47877690229">
        <ele>0</ele>
        <time>2019-05-12T13:37:36Z</time>
      </trkpt>
      <trkpt lat="51.215519897696" lon="4.478827528966">
        <ele>0</ele>
        <time>2019-05-12T13:37:51Z</time>
      </trkpt>
      <trkpt lat="51.215854167868" lon="4.478133591465">
        <ele>0</ele>
        <time>2019-05-12T13:38:06Z</time>
      </trkpt>
      <trkpt lat="51.216292457419" lon="4.477633778768">
        <ele>0</ele>
        <time>2019-05-12T13:38:23Z</time>
      </trkpt>
      <trkpt lat="51.216853625624" lon="4.477623049936">
        <ele>0</ele>
        <time>2019-05-12T13:38:41Z</time>
      </trkpt>
      <trkpt lat="51.217275738108" lon="4.477093313856">
        <ele>0</ele>
        <time>2019-05-12T13:39:00Z</time>
      </trkpt>
      <trkpt lat="51.217769767294" lon="4.477121979954">
        <ele>0</ele>
        <time>2019-05-12T13:39:17Z</time>
      </trkpt>
      <trkpt lat="51.2183207934" lon="4.477193645199">
        <ele>0</ele>
        <time>2019-05-12T13:39:34Z</time>
      </trkpt>
      <trkpt lat="51.21868205329" lon="4.477117369909">
        <ele>0</ele>
        <time>2019-05-12T13:39:48Z</time>
      </trkpt>
      <trkpt lat="51.218748186481" lon="4.476267277611">
        <ele>0.4</ele>
        <time>2019-05-12T13:40:06Z</time>
      </trkpt>
      <trkpt lat="51.218818845898" lon="4.475395392373">
        <ele>0</ele>
        <time>2019-05-12T13:40:21Z</time>
      </trkpt>
      <trkpt lat="51.218924625476" lon="4.474548317559">
        <ele>0</ele>
        <time>2019-05-12T13:40:39Z</time>
      </trkpt>
      <trkpt lat="51.219035182737" lon="4.473658327417">
        <ele>0.2</ele>
        <time>2019-05-12T13:40:57Z</time>
      </trkpt>
      <trkpt lat="51.219180441064" lon="4.472795410812">
        <ele>1</ele>
        <time>2019-05-12T13:41:12Z</time>
      </trkpt>
      <trkpt lat="51.21932410683" lon="4.471923441755">
        <ele>0</ele>
        <time>2019-05-12T13:41:32Z</time>
      </trkpt>
      <trkpt lat="51.219515549426" lon="4.471080138796">
        <ele>0</ele>
        <time>2019-05-12T13:41:46Z</time>
      </trkpt>
      <trkpt lat="51.219686540186" lon="4.470252593809">
        <ele>0</ele>
        <time>2019-05-12T13:41:58Z</time>
      </trkpt>
      <trkpt lat="51.219873288918" lon="4.469426809021">
        <ele>0</ele>
        <time>2019-05-12T13:42:11Z</time>
      </trkpt>
      <trkpt lat="51.220008405146" lon="4.46853841144">
        <ele>0</ele>
        <time>2019-05-12T13:42:26Z</time>
      </trkpt>
      <trkpt lat="51.219985103464" lon="4.467670717152">
        <ele>0</ele>
        <time>2019-05-12T13:42:39Z</time>
      </trkpt>
      <trkpt lat="51.219942439593" lon="4.466802771407">
        <ele>0</ele>
        <time>2019-05-12T13:42:50Z</time>
      </trkpt>
      <trkpt lat="51.219966328008" lon="4.46591320036">
        <ele>0</ele>
        <time>2019-05-12T13:43:03Z</time>
      </trkpt>
      <trkpt lat="51.220118124217" lon="4.465060258216">
        <ele>0</ele>
        <time>2019-05-12T13:43:16Z</time>
      </trkpt>
      <trkpt lat="51.220148382876" lon="4.464442093091">
        <ele>1.2</ele>
        <time>2019-05-12T13:43:25Z</time>
      </trkpt>
      <trkpt lat="51.220151651817" lon="4.464313011831">
        <ele>0.8</ele>
        <time>2019-05-12T13:43:27Z</time>
      </trkpt>
      <trkpt lat="51.220056265795" lon="4.463547073809">
        <ele>0</ele>
        <time>2019-05-12T13:43:38Z</time>
      </trkpt>
      <trkpt lat="51.219931626942" lon="4.463178437847">
        <ele>0</ele>
        <time>2019-05-12T13:43:44Z</time>
      </trkpt>
      <trkpt lat="51.21991586897" lon="4.462331865947">
        <ele>0</ele>
        <time>2019-05-12T13:43:58Z</time>
      </trkpt>
      <trkpt lat="51.220156513319" lon="4.461498788906">
        <ele>4</ele>
        <time>2019-05-12T13:44:15Z</time>
      </trkpt>
      <trkpt lat="51.220289282615" lon="4.461272309968">
        <ele>6.8</ele>
        <time>2019-05-12T13:44:20Z</time>
      </trkpt>
      <trkpt lat="51.220537554493" lon="4.460519531529">
        <ele>16.2</ele>
        <time>2019-05-12T13:44:36Z</time>
      </trkpt>
      <trkpt lat="51.220531351887" lon="4.459566090404">
        <ele>2.6</ele>
        <time>2019-05-12T13:44:56Z</time>
      </trkpt>
      <trkpt lat="51.22063000685" lon="4.458692361148">
        <ele>0</ele>
        <time>2019-05-12T13:45:14Z</time>
      </trkpt>
      <trkpt lat="51.220597987992" lon="4.45841726719">
        <ele>0</ele>
        <time>2019-05-12T13:45:18Z</time>
      </trkpt>
      <trkpt lat="51.220613578326" lon="4.457739758213">
        <ele>0</ele>
        <time>2019-05-12T13:45:28Z</time>
      </trkpt>
      <trkpt lat="51.220536381027" lon="4.456817413937">
        <ele>0</ele>
        <time>2019-05-12T13:45:43Z</time>
      </trkpt>
      <trkpt lat="51.220331443572" lon="4.455995987737">
        <ele>0</ele>
        <time>2019-05-12T13:45:57Z</time>
      </trkpt>
      <trkpt lat="51.21993598553" lon="4.455479578878">
        <ele>0</ele>
        <time>2019-05-12T13:46:12Z</time>
      </trkpt>
      <trkpt lat="51.219914108771" lon="4.455405063787">
        <ele>0</ele>
        <time>2019-05-12T13:46:22Z</time>
      </trkpt>
      <trkpt lat="51.2199049725" lon="4.455400202285">
        <ele>0</ele>
        <time>2019-05-12T13:46:30Z</time>
      </trkpt>
      <trkpt lat="51.219930872571" lon="4.455364830667">
        <ele>0</ele>
        <time>2019-05-12T13:46:35Z</time>
      </trkpt>
      <trkpt lat="51.220382908438" lon="4.454864095961">
        <ele>0</ele>
        <time>2019-05-12T13:46:52Z</time>
      </trkpt>
      <trkpt lat="51.220806445845" lon="4.454299994091">
        <ele>0</ele>
        <time>2019-05-12T13:47:10Z</time>
      </trkpt>
      <trkpt lat="51.221370463896" lon="4.454299742634">
        <ele>0</ele>
        <time>2019-05-12T13:47:26Z</time>
      </trkpt>
      <trkpt lat="51.221682605852" lon="4.454326480895">
        <ele>0</ele>
        <time>2019-05-12T13:47:33Z</time>
      </trkpt>
      <trkpt lat="51.222250479577" lon="4.454274429296">
        <ele>0</ele>
        <time>2019-05-12T13:47:46Z</time>
      </trkpt>
      <trkpt lat="51.222809468488" lon="4.454261269713">
        <ele>0</ele>
        <time>2019-05-12T13:48:00Z</time>
      </trkpt>
      <trkpt lat="51.223352867065" lon="4.454452293214">
        <ele>7.2</ele>
        <time>2019-05-12T13:48:15Z</time>
      </trkpt>
      <trkpt lat="51.223793168272" lon="4.454543572105">
        <ele>15</ele>
        <time>2019-05-12T13:48:26Z</time>
      </trkpt>
      <trkpt lat="51.224344278197" lon="4.454558156611">
        <ele>8.8</ele>
        <time>2019-05-12T13:48:42Z</time>
      </trkpt>
      <trkpt lat="51.224673267772" lon="4.454579781913">
        <ele>5.4</ele>
        <time>2019-05-12T13:49:00Z</time>
      </trkpt>
      <trkpt lat="51.224770162536" lon="4.454414993759">
        <ele>0</ele>
        <time>2019-05-12T13:59:39Z</time>
      </trkpt>
      <trkpt lat="51.224990690325" lon="4.454357326287">
        <ele>0</ele>
        <time>2019-05-12T13:59:56Z</time>
      </trkpt>
      <trkpt lat="51.225037293689" lon="4.453480076633">
        <ele>0</ele>
        <time>2019-05-12T14:00:18Z</time>
      </trkpt>
      <trkpt lat="51.225022457726" lon="4.452583045695">
        <ele>0.2</ele>
        <time>2019-05-12T14:00:38Z</time>
      </trkpt>
      <trkpt lat="51.225182132921" lon="4.45174276022">
        <ele>0</ele>
        <time>2019-05-12T14:00:58Z</time>
      </trkpt>
      <trkpt lat="51.225519504396" lon="4.451078410826">
        <ele>3.8</ele>
        <time>2019-05-12T14:01:16Z</time>
      </trkpt>
      <trkpt lat="51.22597095353" lon="4.450543477968">
        <ele>13</ele>
        <time>2019-05-12T14:01:36Z</time>
      </trkpt>
      <trkpt lat="51.226419636637" lon="4.449998654468">
        <ele>18.2</ele>
        <time>2019-05-12T14:01:52Z</time>
      </trkpt>
      <trkpt lat="51.22673789738" lon="4.449237745586">
        <ele>11.8</ele>
        <time>2019-05-12T14:02:08Z</time>
      </trkpt>
      <trkpt lat="51.227171912162" lon="4.448748577902">
        <ele>14.2</ele>
        <time>2019-05-12T14:02:29Z</time>
      </trkpt>
      <trkpt lat="51.227601652175" lon="4.448151535165">
        <ele>16.4</ele>
        <time>2019-05-12T14:02:45Z</time>
      </trkpt>
      <trkpt lat="51.2278845413" lon="4.447717017469">
        <ele>14.6</ele>
        <time>2019-05-12T14:03:17Z</time>
      </trkpt>
      <trkpt lat="51.228268180863" lon="4.447112514841">
        <ele>13.6</ele>
        <time>2019-05-12T14:03:38Z</time>
      </trkpt>
      <trkpt lat="51.228670428244" lon="4.446510275326">
        <ele>11</ele>
        <time>2019-05-12T14:03:55Z</time>
      </trkpt>
      <trkpt lat="51.22909237309" lon="4.445910550381">
        <ele>10</ele>
        <time>2019-05-12T14:04:13Z</time>
      </trkpt>
      <trkpt lat="51.229499146697" lon="4.445300515699">
        <ele>10.2</ele>
        <time>2019-05-12T14:04:30Z</time>
      </trkpt>
      <trkpt lat="51.229796536509" lon="4.444890976065">
        <ele>10.4</ele>
        <time>2019-05-12T14:04:42Z</time>
      </trkpt>
      <trkpt lat="51.230015807013" lon="4.445666972367">
        <ele>0.8</ele>
        <time>2019-05-12T14:05:05Z</time>
      </trkpt>
      <trkpt lat="51.230106331533" lon="4.446020772366">
        <ele>0.6</ele>
        <time>2019-05-12T14:05:13Z</time>
      </trkpt>
      <trkpt lat="51.229704670885" lon="4.446619659121">
        <ele>5.2</ele>
        <time>2019-05-12T14:05:31Z</time>
      </trkpt>
      <trkpt lat="51.22956595044" lon="4.44680917388">
        <ele>7.4</ele>
        <time>2019-05-12T14:05:37Z</time>
      </trkpt>
      <trkpt lat="51.229163786878" lon="4.447449886316">
        <ele>8.6</ele>
        <time>2019-05-12T14:05:54Z</time>
      </trkpt>
      <trkpt lat="51.228838150063" lon="4.447916841965">
        <ele>6.8</ele>
        <time>2019-05-12T14:06:08Z</time>
      </trkpt>
      <trkpt lat="51.228423413651" lon="4.447383836944">
        <ele>0</ele>
        <time>2019-05-12T14:06:25Z</time>
      </trkpt>
      <trkpt lat="51.22837739702" lon="4.447235393495">
        <ele>0</ele>
        <time>2019-05-12T14:06:29Z</time>
      </trkpt>
      <trkpt lat="51.228411259896" lon="4.447171188141">
        <ele>0</ele>
        <time>2019-05-12T14:06:31Z</time>
      </trkpt>
      <trkpt lat="51.228802443169" lon="4.447770913086">
        <ele>0</ele>
        <time>2019-05-12T14:06:47Z</time>
      </trkpt>
      <trkpt lat="51.229118608437" lon="4.448404165631">
        <ele>0</ele>
        <time>2019-05-12T14:07:06Z</time>
      </trkpt>
      <trkpt lat="51.229014589058" lon="4.448515812539">
        <ele>0</ele>
        <time>2019-05-12T14:07:16Z</time>
      </trkpt>
      <trkpt lat="51.228873437862" lon="4.448635422252">
        <ele>0</ele>
        <time>2019-05-12T14:07:21Z</time>
      </trkpt>
      <trkpt lat="51.228901852503" lon="4.44858278392">
        <ele>0</ele>
        <time>2019-05-12T14:07:28Z</time>
      </trkpt>
      <trkpt lat="51.229024563519" lon="4.448473064849">
        <ele>0</ele>
        <time>2019-05-12T14:07:40Z</time>
      </trkpt>
      <trkpt lat="51.229092959823" lon="4.448339792639">
        <ele>0</ele>
        <time>2019-05-12T14:07:46Z</time>
      </trkpt>
      <trkpt lat="51.22908985852" lon="4.448330404911">
        <ele>0</ele>
        <time>2019-05-12T14:07:49Z</time>
      </trkpt>
      <trkpt lat="51.229054738359" lon="4.448493265228">
        <ele>0</ele>
        <time>2019-05-12T14:07:58Z</time>
      </trkpt>
      <trkpt lat="51.228647461838" lon="4.449148394532">
        <ele>0</ele>
        <time>2019-05-12T14:08:12Z</time>
      </trkpt>
      <trkpt lat="51.228571102729" lon="4.44925668868">
        <ele>0</ele>
        <time>2019-05-12T14:08:16Z</time>
      </trkpt>
      <trkpt lat="51.228539083871" lon="4.449220730329">
        <ele>0</ele>
        <time>2019-05-12T14:08:18Z</time>
      </trkpt>
      <trkpt lat="51.228548136323" lon="4.449208744212">
        <ele>0</ele>
        <time>2019-05-12T14:08:21Z</time>
      </trkpt>
      <trkpt lat="51.228561631182" lon="4.449225759469">
        <ele>0</ele>
        <time>2019-05-12T14:08:23Z</time>
      </trkpt>
      <trkpt lat="51.228585184321" lon="4.44920807366">
        <ele>0</ele>
        <time>2019-05-12T14:08:25Z</time>
      </trkpt>
      <trkpt lat="51.228814513105" lon="4.448872378565">
        <ele>0</ele>
        <time>2019-05-12T14:08:36Z</time>
      </trkpt>
      <trkpt lat="51.228735136512" lon="4.448882185388">
        <ele>0</ele>
        <time>2019-05-12T14:08:40Z</time>
      </trkpt>
      <trkpt lat="51.228487786643" lon="4.449283594579">
        <ele>0</ele>
        <time>2019-05-12T14:08:55Z</time>
      </trkpt>
    </trkseg>
  </trk>
</gpx>